createdAt,value
2018-05-10T00:00:28.991Z,999.33
2018-05-10T00:01:28.920Z,999.34
2018-05-10T00:02:28.931Z,999.37
2018-05-10T00:03:28.779Z,999.38
2018-05-10T00:04:28.713Z,999.39
2018-05-10T00:05:28.630Z,999.41
2018-05-10T00:06:28.571Z,999.45
2018-05-10T00:07:28.499Z,999.45
2018-05-10T00:08:28.430Z,999.46
2018-05-10T00:09:28.359Z,999.47
2018-05-10T00:10:28.286Z,999.44
2018-05-10T00:11:28.218Z,999.45
2018-05-10T00:12:28.152Z,999.45
2018-05-10T00:13:28.074Z,999.49
2018-05-10T00:14:28.017Z,999.47
2018-05-10T00:15:27.940Z,999.48
2018-05-10T00:16:27.869Z,999.43
2018-05-10T00:17:27.802Z,999.48
2018-05-10T00:18:27.728Z,999.44
2018-05-10T00:19:27.662Z,999.45
2018-05-10T00:20:27.590Z,999.48
2018-05-10T00:21:27.541Z,999.48
2018-05-10T00:22:27.449Z,999.50
2018-05-10T00:23:27.383Z,999.58
2018-05-10T00:24:27.383Z,999.53
2018-05-10T00:25:27.244Z,999.56
2018-05-10T00:26:27.170Z,999.58
2018-05-10T00:27:27.103Z,999.57
2018-05-10T00:28:27.032Z,999.54
2018-05-10T00:29:26.962Z,999.56
2018-05-10T00:30:26.913Z,999.60
2018-05-10T00:31:26.826Z,999.62
2018-05-10T00:32:26.757Z,999.66
2018-05-10T00:33:26.684Z,999.68
2018-05-10T00:34:26.616Z,999.68
2018-05-10T00:35:26.562Z,999.69
2018-05-10T00:36:26.475Z,999.67
2018-05-10T00:37:26.430Z,999.69
2018-05-10T00:38:26.349Z,999.70
2018-05-10T00:39:26.269Z,999.73
2018-05-10T00:40:26.197Z,999.73
2018-05-10T00:41:26.129Z,999.72
2018-05-10T00:42:26.052Z,999.77
2018-05-10T00:43:25.991Z,999.76
2018-05-10T00:44:25.917Z,999.80
2018-05-10T00:45:25.848Z,999.76
2018-05-10T00:46:25.790Z,999.79
2018-05-10T00:47:25.707Z,999.74
2018-05-10T00:48:25.645Z,999.75
2018-05-10T00:49:25.576Z,999.76
2018-05-10T00:50:25.500Z,999.75
2018-05-10T00:51:25.434Z,999.74
2018-05-10T00:52:25.362Z,999.73
2018-05-10T00:53:25.289Z,999.72
2018-05-10T00:54:25.225Z,999.76
2018-05-10T00:55:25.157Z,999.73
2018-05-10T00:56:25.119Z,999.70
2018-05-10T00:57:25.014Z,999.71
2018-05-10T00:58:24.935Z,999.75
2018-05-10T00:59:24.874Z,999.75
2018-05-10T01:00:24.801Z,999.80
2018-05-10T01:01:24.730Z,999.76
2018-05-10T01:02:24.666Z,999.73
2018-05-10T01:03:24.594Z,999.75
2018-05-10T01:04:24.518Z,999.70
2018-05-10T01:05:24.449Z,999.75
2018-05-10T01:06:24.385Z,999.79
2018-05-10T01:07:24.313Z,999.77
2018-05-10T01:08:24.239Z,999.78
2018-05-10T01:09:24.171Z,999.75
2018-05-10T01:10:24.098Z,999.78
2018-05-10T01:11:24.031Z,999.77
2018-05-10T01:12:23.956Z,999.81
2018-05-10T01:13:23.910Z,999.76
2018-05-10T01:14:23.823Z,999.74
2018-05-10T01:15:23.752Z,999.82
2018-05-10T01:16:23.681Z,999.76
2018-05-10T01:17:23.614Z,999.86
2018-05-10T01:18:23.552Z,999.82
2018-05-10T01:19:23.471Z,999.83
2018-05-10T01:20:23.400Z,999.83
2018-05-10T01:21:23.336Z,999.83
2018-05-10T01:22:23.262Z,999.87
2018-05-10T01:23:23.193Z,999.87
2018-05-10T01:24:23.118Z,999.90
2018-05-10T01:25:23.068Z,999.88
2018-05-10T01:26:22.991Z,999.89
2018-05-10T01:27:22.912Z,999.90
2018-05-10T01:28:22.838Z,999.88
2018-05-10T01:29:22.775Z,999.86
2018-05-10T01:30:22.703Z,999.88
2018-05-10T01:31:22.629Z,999.86
2018-05-10T01:32:22.559Z,999.90
2018-05-10T01:33:22.490Z,999.85
2018-05-10T01:34:22.419Z,999.85
2018-05-10T01:35:22.347Z,999.85
2018-05-10T01:36:22.282Z,999.83
2018-05-10T01:37:22.207Z,999.78
2018-05-10T01:38:22.142Z,999.83
2018-05-10T01:39:22.069Z,999.80
2018-05-10T01:40:21.999Z,999.80
2018-05-10T01:41:21.927Z,999.86
2018-05-10T01:42:21.857Z,999.86
2018-05-10T01:43:21.788Z,999.85
2018-05-10T01:44:21.713Z,999.83
2018-05-10T01:45:21.650Z,999.87
2018-05-10T01:46:21.577Z,999.87
2018-05-10T01:47:21.511Z,999.87
2018-05-10T01:48:21.436Z,999.84
2018-05-10T01:49:21.377Z,999.91
2018-05-10T01:50:21.295Z,999.87
2018-05-10T01:51:21.228Z,999.90
2018-05-10T01:52:21.172Z,999.91
2018-05-10T01:53:21.087Z,999.95
2018-05-10T01:54:21.017Z,999.92
2018-05-10T01:55:20.943Z,999.91
2018-05-10T01:56:20.866Z,999.89
2018-05-10T01:57:20.816Z,999.91
2018-05-10T01:58:20.734Z,999.94
2018-05-10T01:59:20.677Z,999.97
2018-05-10T02:00:20.592Z,999.93
2018-05-10T02:01:20.518Z,999.96
2018-05-10T02:02:20.462Z,1000.01
2018-05-10T02:03:20.392Z,1000.00
2018-05-10T02:04:20.315Z,1000.00
2018-05-10T02:05:20.240Z,1000.04
2018-05-10T02:06:20.170Z,1000.05
2018-05-10T02:07:20.104Z,1000.00
2018-05-10T02:08:20.033Z,1000.03
2018-05-10T02:09:19.960Z,1000.04
2018-05-10T02:10:19.889Z,1000.02
2018-05-10T02:11:19.833Z,1000.02
2018-05-10T02:12:19.745Z,1000.04
2018-05-10T02:13:19.686Z,1000.05
2018-05-10T02:14:19.607Z,1000.07
2018-05-10T02:15:19.541Z,1000.06
2018-05-10T02:16:19.471Z,1000.08
2018-05-10T02:17:19.403Z,1000.13
2018-05-10T02:18:19.325Z,1000.12
2018-05-10T02:19:19.258Z,1000.13
2018-05-10T02:20:19.183Z,1000.15
2018-05-10T02:21:19.123Z,1000.13
2018-05-10T02:22:19.044Z,1000.14
2018-05-10T02:23:18.977Z,1000.16
2018-05-10T02:24:18.909Z,1000.18
2018-05-10T02:25:18.840Z,1000.17
2018-05-10T02:26:18.763Z,1000.18
2018-05-10T02:27:18.695Z,1000.17
2018-05-10T02:28:18.633Z,1000.14
2018-05-10T02:29:18.552Z,1000.14
2018-05-10T02:30:18.481Z,1000.16
2018-05-10T02:31:18.418Z,1000.20
2018-05-10T02:32:18.340Z,1000.16
2018-05-10T02:33:18.264Z,1000.19
2018-05-10T02:34:18.200Z,1000.18
2018-05-10T02:35:18.128Z,1000.20
2018-05-10T02:36:18.107Z,1000.23
2018-05-10T02:37:17.989Z,1000.23
2018-05-10T02:38:17.918Z,1000.27
2018-05-10T02:39:17.847Z,1000.22
2018-05-10T02:40:17.775Z,1000.25
2018-05-10T02:41:17.703Z,1000.29
2018-05-10T02:42:17.635Z,1000.25
2018-05-10T02:43:17.565Z,1000.37
2018-05-10T02:44:17.503Z,1000.31
2018-05-10T02:45:17.432Z,1000.35
2018-05-10T02:46:17.363Z,1000.34
2018-05-10T02:47:17.284Z,1000.30
2018-05-10T02:48:17.214Z,1000.31
2018-05-10T02:49:17.188Z,1000.32
2018-05-10T02:50:17.072Z,1000.30
2018-05-10T02:51:16.999Z,1000.34
2018-05-10T02:52:16.932Z,1000.33
2018-05-10T02:53:16.861Z,1000.29
2018-05-10T02:54:16.788Z,1000.30
2018-05-10T02:55:16.722Z,1000.34
2018-05-10T02:56:16.643Z,1000.30
2018-05-10T02:57:16.583Z,1000.33
2018-05-10T02:58:16.506Z,1000.32
2018-05-10T02:59:16.436Z,1000.32
2018-05-10T03:00:16.371Z,1000.34
2018-05-10T03:01:16.297Z,1000.32
2018-05-10T03:02:16.230Z,1000.32
2018-05-10T03:03:16.154Z,1000.32
2018-05-10T03:04:16.086Z,1000.36
2018-05-10T03:05:16.019Z,1000.37
2018-05-10T03:06:15.936Z,1000.36
2018-05-10T03:07:15.873Z,1000.39
2018-05-10T03:08:15.798Z,1000.41
2018-05-10T03:09:15.723Z,1000.40
2018-05-10T03:10:15.660Z,1000.40
2018-05-10T03:11:15.588Z,1000.39
2018-05-10T03:12:15.523Z,1000.37
2018-05-10T03:13:15.445Z,1000.34
2018-05-10T03:14:15.380Z,1000.35
2018-05-10T03:15:15.312Z,1000.35
2018-05-10T03:16:15.231Z,1000.38
2018-05-10T03:17:15.162Z,1000.35
2018-05-10T03:18:15.091Z,1000.32
2018-05-10T03:19:15.055Z,1000.36
2018-05-10T03:20:14.949Z,1000.41
2018-05-10T03:21:14.878Z,1000.39
2018-05-10T03:22:14.812Z,1000.39
2018-05-10T03:23:14.738Z,1000.40
2018-05-10T03:24:14.668Z,1000.41
2018-05-10T03:25:14.596Z,1000.48
2018-05-10T03:26:14.524Z,1000.46
2018-05-10T03:27:14.453Z,1000.49
2018-05-10T03:28:14.391Z,1000.50
2018-05-10T03:29:14.360Z,1000.53
2018-05-10T03:30:14.248Z,1000.54
2018-05-10T03:31:14.165Z,1000.57
2018-05-10T03:32:14.100Z,1000.58
2018-05-10T03:33:14.116Z,1000.58
2018-05-10T03:34:13.963Z,1000.56
2018-05-10T03:35:13.908Z,1000.57
2018-05-10T03:36:13.814Z,1000.63
2018-05-10T03:37:13.784Z,1000.62
2018-05-10T03:38:13.676Z,1000.62
2018-05-10T03:39:13.600Z,1000.60
2018-05-10T03:40:13.530Z,1000.58
2018-05-10T03:41:13.461Z,1000.60
2018-05-10T03:42:13.389Z,1000.61
2018-05-10T03:43:13.319Z,1000.60
2018-05-10T03:44:13.245Z,1000.64
2018-05-10T03:45:13.178Z,1000.57
2018-05-10T03:46:13.104Z,1000.65
2018-05-10T03:47:13.037Z,1000.70
2018-05-10T03:48:12.965Z,1000.71
2018-05-10T03:49:12.890Z,1000.73
2018-05-10T03:50:12.824Z,1000.75
2018-05-10T03:51:12.752Z,1000.78
2018-05-10T03:52:12.677Z,1000.76
2018-05-10T03:53:12.612Z,1000.80
2018-05-10T03:54:12.537Z,1000.86
2018-05-10T03:55:12.475Z,1000.81
2018-05-10T03:56:12.397Z,1000.84
2018-05-10T03:57:12.326Z,1000.83
2018-05-10T03:58:12.254Z,1000.80
2018-05-10T03:59:12.193Z,1000.83
2018-05-10T04:00:12.111Z,1000.87
2018-05-10T04:01:12.040Z,1000.84
2018-05-10T04:02:11.970Z,1000.86
2018-05-10T04:03:11.899Z,1000.83
2018-05-10T04:04:11.851Z,1000.87
2018-05-10T04:05:11.752Z,1000.94
2018-05-10T04:06:11.687Z,1000.88
2018-05-10T04:07:11.622Z,1000.95
2018-05-10T04:08:11.541Z,1001.01
2018-05-10T04:09:11.471Z,1001.02
2018-05-10T04:10:11.393Z,1000.99
2018-05-10T04:11:11.328Z,1001.00
2018-05-10T04:12:11.257Z,1001.01
2018-05-10T04:13:11.183Z,1001.04
2018-05-10T04:14:11.119Z,1001.00
2018-05-10T04:15:11.044Z,1001.06
2018-05-10T04:16:11.035Z,1001.06
2018-05-10T04:17:10.902Z,1001.11
2018-05-10T04:18:10.827Z,1001.14
2018-05-10T04:19:10.756Z,1001.18
2018-05-10T04:20:10.690Z,1001.20
2018-05-10T04:21:10.627Z,1001.22
2018-05-10T04:22:10.545Z,1001.19
2018-05-10T04:23:10.477Z,1001.16
2018-05-10T04:24:10.404Z,1001.21
2018-05-10T04:25:10.329Z,1001.21
2018-05-10T04:26:10.265Z,1001.25
2018-05-10T04:27:10.191Z,1001.26
2018-05-10T04:28:10.136Z,1001.31
2018-05-10T04:29:10.048Z,1001.25
2018-05-10T04:30:09.986Z,1001.34
2018-05-10T04:31:09.906Z,1001.33
2018-05-10T04:32:09.839Z,1001.39
2018-05-10T04:33:09.761Z,1001.34
2018-05-10T04:34:09.692Z,1001.41
2018-05-10T04:35:09.621Z,1001.42
2018-05-10T04:36:09.557Z,1001.43
2018-05-10T04:37:09.478Z,1001.47
2018-05-10T04:38:09.403Z,1001.48
2018-05-10T04:39:09.330Z,1001.47
2018-05-10T04:40:09.266Z,1001.45
2018-05-10T04:41:09.193Z,1001.53
2018-05-10T04:42:09.175Z,1001.56
2018-05-10T04:43:09.051Z,1001.48
2018-05-10T04:44:08.979Z,1001.50
2018-05-10T04:45:08.911Z,1001.53
2018-05-10T04:46:08.838Z,1001.55
2018-05-10T04:47:08.765Z,1001.56
2018-05-10T04:48:08.686Z,1001.61
2018-05-10T04:49:08.627Z,1001.59
2018-05-10T04:50:08.549Z,1001.66
2018-05-10T04:51:08.489Z,1001.69
2018-05-10T04:52:08.403Z,1001.67
2018-05-10T04:53:08.336Z,1001.68
2018-05-10T04:54:08.265Z,1001.74
2018-05-10T04:55:08.194Z,1001.70
2018-05-10T04:56:08.138Z,1001.77
2018-05-10T04:57:08.056Z,1001.74
2018-05-10T04:58:07.984Z,1001.75
2018-05-10T04:59:07.915Z,1001.74
2018-05-10T05:00:07.832Z,1001.76
2018-05-10T05:01:07.765Z,1001.75
2018-05-10T05:02:07.695Z,1001.78
2018-05-10T05:03:07.624Z,1001.78
2018-05-10T05:04:07.547Z,1001.73
2018-05-10T05:05:07.483Z,1001.76
2018-05-10T05:06:07.411Z,1001.85
2018-05-10T05:07:07.338Z,1001.83
2018-05-10T05:08:07.263Z,1001.78
2018-05-10T05:09:07.271Z,1001.83
2018-05-10T05:10:07.122Z,1001.78
2018-05-10T05:11:07.052Z,1001.85
2018-05-10T05:12:06.983Z,1001.89
2018-05-10T05:13:06.904Z,1001.87
2018-05-10T05:14:06.838Z,1001.86
2018-05-10T05:15:06.766Z,1001.87
2018-05-10T05:16:06.740Z,1001.90
2018-05-10T05:17:06.628Z,1001.88
2018-05-10T05:18:06.553Z,1001.88
2018-05-10T05:19:06.480Z,1001.91
2018-05-10T05:20:06.405Z,1001.97
2018-05-10T05:21:06.337Z,1001.96
2018-05-10T05:22:06.262Z,1002.01
2018-05-10T05:23:06.194Z,1002.00
2018-05-10T05:24:06.120Z,1002.04
2018-05-10T05:25:06.050Z,1002.10
2018-05-10T05:26:05.983Z,1002.06
2018-05-10T05:27:05.910Z,1002.09
2018-05-10T05:28:05.835Z,1002.15
2018-05-10T05:29:05.768Z,1002.17
2018-05-10T05:30:05.698Z,1002.21
2018-05-10T05:31:05.625Z,1002.18
2018-05-10T05:32:05.549Z,1002.15
2018-05-10T05:33:05.485Z,1002.16
2018-05-10T05:34:05.407Z,1002.15
2018-05-10T05:35:05.355Z,1002.23
2018-05-10T05:36:05.311Z,1002.21
2018-05-10T05:37:05.207Z,1002.20
2018-05-10T05:38:05.122Z,1002.26
2018-05-10T05:39:05.052Z,1002.29
2018-05-10T05:40:04.979Z,1002.29
2018-05-10T05:41:05.073Z,1002.30
2018-05-10T05:42:04.831Z,1002.30
2018-05-10T05:43:04.760Z,1002.37
2018-05-10T05:44:04.695Z,1002.39
2018-05-10T05:45:04.642Z,1002.35
2018-05-10T05:46:04.550Z,1002.35
2018-05-10T05:47:04.497Z,1002.39
2018-05-10T05:48:04.413Z,1002.39
2018-05-10T05:49:04.338Z,1002.44
2018-05-10T05:50:04.263Z,1002.46
2018-05-10T05:51:04.197Z,1002.44
2018-05-10T05:52:04.117Z,1002.46
2018-05-10T05:53:04.052Z,1002.46
2018-05-10T05:54:03.985Z,1002.52
2018-05-10T05:55:03.915Z,1002.52
2018-05-10T05:56:03.839Z,1002.52
2018-05-10T05:57:03.762Z,1002.55
2018-05-10T05:58:03.698Z,1002.53
2018-05-10T05:59:03.625Z,1002.56
2018-05-10T06:00:03.552Z,1002.55
2018-05-10T06:01:03.471Z,1002.52
2018-05-10T06:02:03.403Z,1002.61
2018-05-10T06:03:03.330Z,1002.57
2018-05-10T06:04:03.257Z,1002.61
2018-05-10T06:05:03.195Z,1002.59
2018-05-10T06:06:03.130Z,1002.61
2018-05-10T06:07:03.050Z,1002.62
2018-05-10T06:08:02.977Z,1002.63
2018-05-10T06:09:02.905Z,1002.66
2018-05-10T06:10:02.826Z,1002.60
2018-05-10T06:11:02.766Z,1002.66
2018-05-10T06:12:02.680Z,1002.65
2018-05-10T06:13:02.620Z,1002.66
2018-05-10T06:14:02.542Z,1002.66
2018-05-10T06:15:02.503Z,1002.68
2018-05-10T06:16:02.507Z,1002.72
2018-05-10T06:17:02.371Z,1002.68
2018-05-10T06:18:02.258Z,1002.64
2018-05-10T06:19:02.188Z,1002.73
2018-05-10T06:20:02.124Z,1002.66
2018-05-10T06:21:02.046Z,1002.63
2018-05-10T06:22:01.974Z,1002.66
2018-05-10T06:23:01.901Z,1002.65
2018-05-10T06:24:01.828Z,1002.57
2018-05-10T06:25:01.790Z,1002.62
2018-05-10T06:26:01.683Z,1002.62
2018-05-10T06:27:01.643Z,1002.62
2018-05-10T06:28:01.543Z,1002.69
2018-05-10T06:29:01.470Z,1002.69
2018-05-10T06:30:01.407Z,1002.67
2018-05-10T06:31:01.325Z,1002.69
2018-05-10T06:32:01.263Z,1002.71
2018-05-10T06:33:01.187Z,1002.68
2018-05-10T06:34:01.186Z,1002.69
2018-05-10T06:35:01.043Z,1002.68
2018-05-10T06:36:00.981Z,1002.73
2018-05-10T06:37:00.901Z,1002.70
2018-05-10T06:38:00.827Z,1002.74
2018-05-10T06:39:00.772Z,1002.72
2018-05-10T06:40:00.689Z,1002.70
2018-05-10T06:41:00.621Z,1002.70
2018-05-10T06:42:00.548Z,1002.70
2018-05-10T06:43:00.471Z,1002.73
2018-05-10T06:44:00.394Z,1002.74
2018-05-10T06:45:00.331Z,1002.74
2018-05-10T06:46:00.259Z,1002.73
2018-05-10T06:47:00.189Z,1002.71
2018-05-10T06:48:00.114Z,1002.73
2018-05-10T06:49:00.045Z,1002.79
2018-05-10T06:49:59.974Z,1002.78
2018-05-10T06:50:59.905Z,1002.77
2018-05-10T06:51:59.830Z,1002.78
2018-05-10T06:52:59.763Z,1002.79
2018-05-10T06:53:59.690Z,1002.76
2018-05-10T06:54:59.618Z,1002.78
2018-05-10T06:55:59.547Z,1002.72
2018-05-10T06:56:59.471Z,1002.73
2018-05-10T06:57:59.406Z,1002.70
2018-05-10T06:58:59.332Z,1002.67
2018-05-10T06:59:59.261Z,1002.73
2018-05-10T07:00:59.189Z,1002.69
2018-05-10T07:01:59.126Z,1002.71
2018-05-10T07:02:59.050Z,1002.71
2018-05-10T07:03:58.971Z,1002.74
2018-05-10T07:04:58.912Z,1002.75
2018-05-10T07:05:58.841Z,1002.77
2018-05-10T07:06:58.776Z,1002.77
2018-05-10T07:07:58.693Z,1002.78
2018-05-10T07:08:58.623Z,1002.80
2018-05-10T07:09:58.741Z,1002.79
2018-05-10T07:10:58.483Z,1002.83
2018-05-10T07:11:58.415Z,1002.90
2018-05-10T07:12:58.338Z,1002.91
2018-05-10T07:13:58.268Z,1002.95
2018-05-10T07:14:58.201Z,1002.96
2018-05-10T07:15:58.128Z,1002.98
2018-05-10T07:16:58.058Z,1002.97
2018-05-10T07:17:57.984Z,1002.95
2018-05-10T07:18:57.915Z,1002.93
2018-05-10T07:19:57.844Z,1002.95
2018-05-10T07:20:57.773Z,1002.95
2018-05-10T07:21:57.708Z,1002.92
2018-05-10T07:22:57.636Z,1002.98
2018-05-10T07:23:57.563Z,1002.98
2018-05-10T07:24:57.498Z,1003.00
2018-05-10T07:25:57.418Z,1002.97
2018-05-10T07:26:57.349Z,1003.01
2018-05-10T07:27:57.281Z,1003.01
2018-05-10T07:28:57.212Z,1003.04
2018-05-10T07:29:57.139Z,1003.05
2018-05-10T07:30:57.069Z,1003.06
2018-05-10T07:31:57.014Z,1003.07
2018-05-10T07:32:56.936Z,1003.08
2018-05-10T07:33:56.872Z,1003.04
2018-05-10T07:34:56.787Z,1003.04
2018-05-10T07:35:56.720Z,1003.05
2018-05-10T07:36:56.641Z,1003.06
2018-05-10T07:37:56.578Z,1003.09
2018-05-10T07:38:56.506Z,1003.10
2018-05-10T07:39:56.432Z,1003.05
2018-05-10T07:40:56.360Z,1003.06
2018-05-10T07:41:56.328Z,1003.07
2018-05-10T07:42:56.220Z,1003.07
2018-05-10T07:43:56.162Z,1003.09
2018-05-10T07:44:56.083Z,1003.12
2018-05-10T07:45:56.018Z,1003.13
2018-05-10T07:46:55.942Z,1003.15
2018-05-10T07:47:55.867Z,1003.16
2018-05-10T07:48:55.800Z,1003.18
2018-05-10T07:49:55.737Z,1003.14
2018-05-10T07:50:55.661Z,1003.19
2018-05-10T07:51:55.589Z,1003.18
2018-05-10T07:52:55.519Z,1003.23
2018-05-10T07:53:55.454Z,1003.24
2018-05-10T07:54:55.382Z,1003.21
2018-05-10T07:55:55.307Z,1003.23
2018-05-10T07:56:55.238Z,1003.23
2018-05-10T07:57:55.174Z,1003.25
2018-05-10T07:58:55.104Z,1003.30
2018-05-10T07:59:55.026Z,1003.27
2018-05-10T08:00:54.960Z,1003.27
2018-05-10T08:01:54.891Z,1003.32
2018-05-10T08:02:54.819Z,1003.35
2018-05-10T08:03:54.748Z,1003.35
2018-05-10T08:04:54.683Z,1003.34
2018-05-10T08:05:54.611Z,1003.40
2018-05-10T08:06:54.600Z,1003.38
2018-05-10T08:07:54.473Z,1003.45
2018-05-10T08:08:54.402Z,1003.46
2018-05-10T08:09:54.330Z,1003.44
2018-05-10T08:10:54.261Z,1003.46
2018-05-10T08:11:54.194Z,1003.51
2018-05-10T08:12:54.118Z,1003.51
2018-05-10T08:13:54.050Z,1003.51
2018-05-10T08:14:53.979Z,1003.59
2018-05-10T08:15:53.917Z,1003.57
2018-05-10T08:16:53.929Z,1003.60
2018-05-10T08:17:53.768Z,1003.60
2018-05-10T08:18:53.706Z,1003.68
2018-05-10T08:19:53.651Z,1003.69
2018-05-10T08:20:53.562Z,1003.66
2018-05-10T08:21:53.489Z,1003.72
2018-05-10T08:22:53.420Z,1003.71
2018-05-10T08:23:53.352Z,1003.72
2018-05-10T08:24:53.283Z,1003.72
2018-05-10T08:25:53.209Z,1003.72
2018-05-10T08:26:53.138Z,1003.75
2018-05-10T08:27:53.082Z,1003.72
2018-05-10T08:28:53.004Z,1003.74
2018-05-10T08:29:52.932Z,1003.81
2018-05-10T08:30:52.884Z,1003.79
2018-05-10T08:31:52.792Z,1003.84
2018-05-10T08:32:52.722Z,1003.83
2018-05-10T08:33:52.654Z,1003.91
2018-05-10T08:34:52.582Z,1003.90
2018-05-10T08:35:52.516Z,1003.94
2018-05-10T08:36:52.481Z,1003.96
2018-05-10T08:37:52.368Z,1003.93
2018-05-10T08:38:52.332Z,1003.97
2018-05-10T08:39:52.228Z,1004.05
2018-05-10T08:40:52.160Z,1004.04
2018-05-10T08:41:52.093Z,1004.07
2018-05-10T08:42:52.023Z,1004.07
2018-05-10T08:43:51.948Z,1004.10
2018-05-10T08:44:51.881Z,1004.13
2018-05-10T08:45:51.811Z,1004.14
2018-05-10T08:46:51.746Z,1004.17
2018-05-10T08:47:51.674Z,1004.16
2018-05-10T08:48:51.606Z,1004.13
2018-05-10T08:49:51.529Z,1004.10
2018-05-10T08:50:51.469Z,1004.12
2018-05-10T08:51:51.476Z,1004.13
2018-05-10T08:52:51.320Z,1004.13
2018-05-10T08:53:51.249Z,1004.17
2018-05-10T08:54:51.180Z,1004.14
2018-05-10T08:55:51.107Z,1004.19
2018-05-10T08:56:51.041Z,1004.21
2018-05-10T08:57:50.971Z,1004.22
2018-05-10T08:58:50.899Z,1004.23
2018-05-10T08:59:50.846Z,1004.25
2018-05-10T09:00:50.761Z,1004.26
2018-05-10T09:01:50.691Z,1004.27
2018-05-10T09:02:50.623Z,1004.26
2018-05-10T09:03:50.552Z,1004.26
2018-05-10T09:04:50.486Z,1004.32
2018-05-10T09:05:50.460Z,1004.31
2018-05-10T09:06:50.373Z,1004.35
2018-05-10T09:07:50.270Z,1004.31
2018-05-10T09:08:50.210Z,1004.32
2018-05-10T09:09:50.131Z,1004.32
2018-05-10T09:10:50.064Z,1004.35
2018-05-10T09:11:49.990Z,1004.34
2018-05-10T09:12:49.922Z,1004.38
2018-05-10T09:13:49.851Z,1004.38
2018-05-10T09:14:49.789Z,1004.40
2018-05-10T09:15:49.718Z,1004.46
2018-05-10T09:16:49.642Z,1004.39
2018-05-10T09:17:49.573Z,1004.36
2018-05-10T09:18:49.505Z,1004.36
2018-05-10T09:19:49.437Z,1004.42
2018-05-10T09:20:49.368Z,1004.38
2018-05-10T09:21:49.293Z,1004.46
2018-05-10T09:22:49.225Z,1004.41
2018-05-10T09:23:49.157Z,1004.42
2018-05-10T09:24:49.089Z,1004.45
2018-05-10T09:25:49.014Z,1004.47
2018-05-10T09:26:48.945Z,1004.50
2018-05-10T09:27:48.898Z,1004.49
2018-05-10T09:28:48.813Z,1004.53
2018-05-10T09:29:48.736Z,1004.51
2018-05-10T09:30:48.667Z,1004.55
2018-05-10T09:31:48.594Z,1004.52
2018-05-10T09:32:48.528Z,1004.54
2018-05-10T09:33:48.456Z,1004.55
2018-05-10T09:34:48.395Z,1004.55
2018-05-10T09:35:48.319Z,1004.56
2018-05-10T09:36:48.247Z,1004.62
2018-05-10T09:37:48.179Z,1004.62
2018-05-10T09:38:48.109Z,1004.65
2018-05-10T09:39:48.034Z,1004.69
2018-05-10T09:40:47.967Z,1004.69
2018-05-10T09:41:47.902Z,1004.85
2018-05-10T09:42:47.827Z,1004.83
2018-05-10T09:43:47.754Z,1004.82
2018-05-10T09:44:47.756Z,1004.88
2018-05-10T09:45:47.618Z,1004.90
2018-05-10T09:46:47.546Z,1004.88
2018-05-10T09:47:47.494Z,1004.94
2018-05-10T09:48:47.406Z,1005.02
2018-05-10T09:49:47.344Z,1005.01
2018-05-10T09:50:47.268Z,1005.05
2018-05-10T09:51:47.198Z,1005.12
2018-05-10T09:52:47.207Z,1005.07
2018-05-10T09:53:47.059Z,1005.02
2018-05-10T09:54:46.987Z,1005.11
2018-05-10T09:55:46.924Z,1005.10
2018-05-10T09:56:46.850Z,1005.16
2018-05-10T09:57:46.781Z,1005.14
2018-05-10T09:58:46.708Z,1005.20
2018-05-10T09:59:46.643Z,1005.22
2018-05-10T10:00:46.568Z,1005.22
2018-05-10T10:01:46.495Z,1005.25
2018-05-10T10:02:46.433Z,1005.29
2018-05-10T10:03:46.359Z,1005.32
2018-05-10T10:04:46.287Z,1005.31
2018-05-10T10:05:46.250Z,1005.36
2018-05-10T10:06:46.156Z,1005.35
2018-05-10T10:07:46.077Z,1005.39
2018-05-10T10:08:46.004Z,1005.39
2018-05-10T10:09:45.944Z,1005.44
2018-05-10T10:10:45.863Z,1005.42
2018-05-10T10:11:45.862Z,1005.49
2018-05-10T10:12:45.723Z,1005.48
2018-05-10T10:13:45.657Z,1005.47
2018-05-10T10:14:45.583Z,1005.46
2018-05-10T10:15:45.549Z,1005.44
2018-05-10T10:16:45.440Z,1005.50
2018-05-10T10:17:45.375Z,1005.55
2018-05-10T10:18:45.299Z,1005.50
2018-05-10T10:19:45.227Z,1005.53
2018-05-10T10:20:45.162Z,1005.57
2018-05-10T10:21:45.089Z,1005.58
2018-05-10T10:22:45.021Z,1005.59
2018-05-10T10:23:44.948Z,1005.60
2018-05-10T10:24:44.876Z,1005.59
2018-05-10T10:25:44.808Z,1005.68
2018-05-10T10:26:44.738Z,1005.67
2018-05-10T10:27:44.664Z,1005.72
2018-05-10T10:28:44.596Z,1005.74
2018-05-10T10:29:44.543Z,1005.76
2018-05-10T10:30:44.454Z,1005.80
2018-05-10T10:31:44.384Z,1005.86
2018-05-10T10:32:44.317Z,1005.84
2018-05-10T10:33:44.243Z,1005.90
2018-05-10T10:34:44.175Z,1005.96
2018-05-10T10:35:44.107Z,1005.98
2018-05-10T10:36:44.033Z,1006.04
2018-05-10T10:37:43.956Z,1006.03
2018-05-10T10:38:43.903Z,1006.06
2018-05-10T10:39:43.818Z,1006.11
2018-05-10T10:40:43.753Z,1006.13
2018-05-10T10:41:43.679Z,1006.15
2018-05-10T10:42:43.608Z,1006.16
2018-05-10T10:43:43.558Z,1006.14
2018-05-10T10:44:43.480Z,1006.14
2018-05-10T10:45:43.393Z,1006.18
2018-05-10T10:46:43.334Z,1006.17
2018-05-10T10:47:43.258Z,1006.22
2018-05-10T10:48:43.182Z,1006.22
2018-05-10T10:49:43.121Z,1006.28
2018-05-10T10:50:43.043Z,1006.33
2018-05-10T10:51:42.969Z,1006.30
2018-05-10T10:52:42.899Z,1006.25
2018-05-10T10:53:42.828Z,1006.26
2018-05-10T10:54:42.759Z,1006.27
2018-05-10T10:55:42.689Z,1006.33
2018-05-10T10:56:42.615Z,1006.32
2018-05-10T10:57:42.545Z,1006.28
2018-05-10T10:58:42.479Z,1006.31
2018-05-10T10:59:42.403Z,1006.33
2018-05-10T11:00:42.332Z,1006.39
2018-05-10T11:01:42.333Z,1006.37
2018-05-10T11:02:42.189Z,1006.39
2018-05-10T11:03:42.121Z,1006.41
2018-05-10T11:04:42.048Z,1006.44
2018-05-10T11:05:41.980Z,1006.47
2018-05-10T11:06:41.906Z,1006.45
2018-05-10T11:07:41.838Z,1006.47
2018-05-10T11:08:41.766Z,1006.50
2018-05-10T11:09:41.694Z,1006.47
2018-05-10T11:10:41.626Z,1006.52
2018-05-10T11:11:41.553Z,1006.53
2018-05-10T11:12:41.483Z,1006.53
2018-05-10T11:13:41.409Z,1006.51
2018-05-10T11:14:41.340Z,1006.51
2018-05-10T11:15:41.270Z,1006.55
2018-05-10T11:16:41.197Z,1006.53
2018-05-10T11:17:41.132Z,1006.57
2018-05-10T11:18:41.056Z,1006.58
2018-05-10T11:19:40.983Z,1006.60
2018-05-10T11:20:40.913Z,1006.60
2018-05-10T11:21:40.846Z,1006.62
2018-05-10T11:22:40.876Z,1006.64
2018-05-10T11:23:40.704Z,1006.62
2018-05-10T11:24:40.632Z,1006.66
2018-05-10T11:25:40.559Z,1006.61
2018-05-10T11:26:40.494Z,1006.61
2018-05-10T11:27:40.418Z,1006.60
2018-05-10T11:28:40.348Z,1006.63
2018-05-10T11:29:40.280Z,1006.67
2018-05-10T11:30:40.209Z,1006.71
2018-05-10T11:31:40.138Z,1006.68
2018-05-10T11:32:40.067Z,1006.67
2018-05-10T11:33:39.997Z,1006.69
2018-05-10T11:34:39.927Z,1006.74
2018-05-10T11:35:39.858Z,1006.71
2018-05-10T11:36:39.788Z,1006.71
2018-05-10T11:37:39.722Z,1006.73
2018-05-10T11:38:39.654Z,1006.74
2018-05-10T11:39:39.577Z,1006.76
2018-05-10T11:40:39.507Z,1006.73
2018-05-10T11:41:39.439Z,1006.73
2018-05-10T11:42:39.373Z,1006.72
2018-05-10T11:43:39.298Z,1006.74
2018-05-10T11:44:39.236Z,1006.79
2018-05-10T11:45:39.162Z,1006.87
2018-05-10T11:46:39.091Z,1006.80
2018-05-10T11:47:39.040Z,1006.81
2018-05-10T11:48:38.968Z,1006.80
2018-05-10T11:49:38.881Z,1006.86
2018-05-10T11:50:38.816Z,1006.81
2018-05-10T11:51:38.746Z,1006.80
2018-05-10T11:52:38.672Z,1006.84
2018-05-10T11:53:38.604Z,1006.82
2018-05-10T11:54:38.533Z,1006.88
2018-05-10T11:55:38.462Z,1006.92
2018-05-10T11:56:38.409Z,1006.98
2018-05-10T11:57:38.325Z,1006.88
2018-05-10T11:58:38.256Z,1006.94
2018-05-10T11:59:38.206Z,1006.97
2018-05-10T12:00:38.112Z,1006.98
2018-05-10T12:01:38.044Z,1006.89
2018-05-10T12:02:37.983Z,1006.92
2018-05-10T12:03:37.907Z,1006.98
2018-05-10T12:04:37.834Z,1007.04
2018-05-10T12:05:37.792Z,1007.09
2018-05-10T12:06:37.696Z,1007.07
2018-05-10T12:07:37.624Z,1007.02
2018-05-10T12:08:37.552Z,1007.07